sensor_id;sensor_type;location;lat;lon;timestamp;P1;durP1;ratioP1;P2;durP2;ratioP2
19187;SDS011;9726;52.198;8.792;2023-01-19T00:01:20;16.73;;;8.17;;
19187;SDS011;9726;52.198;8.792;2023-01-19T00:03:47;19.73;;;9.00;;
19187;SDS011;9726;52.198;8.792;2023-01-19T00:06:15;20.10;;;10.37;;
19187;SDS011;9726;52.198;8.792;2023-01-19T00:08:42;25.23;;;11.10;;
19187;SDS011;9726;52.198;8.792;2023-01-19T00:11:11;21.63;;;10.33;;
19187;SDS011;9726;52.198;8.792;2023-01-19T00:13:39;21.43;;;11.77;;
19187;SDS011;9726;52.198;8.792;2023-01-19T00:16:06;21.73;;;10.07;;
19187;SDS011;9726;52.198;8.792;2023-01-19T00:18:34;22.37;;;8.87;;
19187;SDS011;9726;52.198;8.792;2023-01-19T00:21:01;14.47;;;8.90;;
19187;SDS011;9726;52.198;8.792;2023-01-19T00:23:29;19.20;;;9.37;;
19187;SDS011;9726;52.198;8.792;2023-01-19T00:25:56;17.37;;;10.80;;
19187;SDS011;9726;52.198;8.792;2023-01-19T00:28:23;21.63;;;9.13;;
19187;SDS011;9726;52.198;8.792;2023-01-19T00:30:51;18.00;;;10.13;;
19187;SDS011;9726;52.198;8.792;2023-01-19T00:33:18;17.00;;;10.00;;
19187;SDS011;9726;52.198;8.792;2023-01-19T00:35:49;18.53;;;9.47;;
19187;SDS011;9726;52.198;8.792;2023-01-19T00:38:17;26.47;;;10.33;;
19187;SDS011;9726;52.198;8.792;2023-01-19T00:40:45;24.70;;;11.33;;
19187;SDS011;9726;52.198;8.792;2023-01-19T00:43:13;18.07;;;10.07;;
19187;SDS011;9726;52.198;8.792;2023-01-19T00:45:40;24.57;;;9.87;;
19187;SDS011;9726;52.198;8.792;2023-01-19T00:48:07;22.13;;;11.67;;
19187;SDS011;9726;52.198;8.792;2023-01-19T00:50:35;21.90;;;11.53;;
19187;SDS011;9726;52.198;8.792;2023-01-19T00:53:02;21.47;;;11.50;;
19187;SDS011;9726;52.198;8.792;2023-01-19T00:55:30;25.30;;;11.57;;
19187;SDS011;9726;52.198;8.792;2023-01-19T00:57:58;25.57;;;11.67;;
19187;SDS011;9726;52.198;8.792;2023-01-19T01:00:26;22.03;;;11.23;;
19187;SDS011;9726;52.198;8.792;2023-01-19T01:02:54;25.40;;;12.47;;
19187;SDS011;9726;52.198;8.792;2023-01-19T01:05:21;24.60;;;11.47;;
19187;SDS011;9726;52.198;8.792;2023-01-19T01:07:49;22.13;;;11.40;;
19187;SDS011;9726;52.198;8.792;2023-01-19T01:10:20;17.93;;;10.23;;
19187;SDS011;9726;52.198;8.792;2023-01-19T01:12:48;23.10;;;9.93;;
19187;SDS011;9726;52.198;8.792;2023-01-19T01:15:24;23.30;;;10.17;;
19187;SDS011;9726;52.198;8.792;2023-01-19T01:17:52;32.63;;;14.03;;
19187;SDS011;9726;52.198;8.792;2023-01-19T01:20:21;31.93;;;12.73;;
19187;SDS011;9726;52.198;8.792;2023-01-19T01:22:49;30.07;;;13.33;;
19187;SDS011;9726;52.198;8.792;2023-01-19T01:25:18;25.27;;;13.17;;
19187;SDS011;9726;52.198;8.792;2023-01-19T01:27:48;23.47;;;13.23;;
19187;SDS011;9726;52.198;8.792;2023-01-19T01:30:15;24.67;;;12.00;;
19187;SDS011;9726;52.198;8.792;2023-01-19T01:32:43;21.27;;;11.50;;
19187;SDS011;9726;52.198;8.792;2023-01-19T01:35:11;23.27;;;10.23;;
19187;SDS011;9726;52.198;8.792;2023-01-19T01:37:38;12.23;;;8.77;;
19187;SDS011;9726;52.198;8.792;2023-01-19T01:40:06;23.77;;;11.13;;
19187;SDS011;9726;52.198;8.792;2023-01-19T01:42:34;31.20;;;14.47;;
19187;SDS011;9726;52.198;8.792;2023-01-19T01:45:03;27.30;;;14.60;;
19187;SDS011;9726;52.198;8.792;2023-01-19T01:47:33;17.67;;;10.00;;
19187;SDS011;9726;52.198;8.792;2023-01-19T01:52:30;31.40;;;13.00;;
19187;SDS011;9726;52.198;8.792;2023-01-19T01:54:58;20.67;;;10.50;;
19187;SDS011;9726;52.198;8.792;2023-01-19T01:57:26;24.37;;;10.87;;
19187;SDS011;9726;52.198;8.792;2023-01-19T01:59:54;26.07;;;14.33;;
19187;SDS011;9726;52.198;8.792;2023-01-19T02:02:24;20.10;;;12.90;;
19187;SDS011;9726;52.198;8.792;2023-01-19T02:05:14;20.93;;;12.93;;
19187;SDS011;9726;52.198;8.792;2023-01-19T02:07:47;31.43;;;14.80;;
19187;SDS011;9726;52.198;8.792;2023-01-19T02:10:35;19.03;;;10.97;;
19187;SDS011;9726;52.198;8.792;2023-01-19T02:13:21;16.60;;;10.33;;
19187;SDS011;9726;52.198;8.792;2023-01-19T02:15:53;24.80;;;13.07;;
19187;SDS011;9726;52.198;8.792;2023-01-19T02:18:22;24.30;;;12.70;;
19187;SDS011;9726;52.198;8.792;2023-01-19T02:20:53;27.10;;;13.87;;
19187;SDS011;9726;52.198;8.792;2023-01-19T02:25:59;23.80;;;14.53;;
19187;SDS011;9726;52.198;8.792;2023-01-19T02:28:26;24.37;;;13.23;;
19187;SDS011;9726;52.198;8.792;2023-01-19T02:30:54;25.20;;;13.33;;
19187;SDS011;9726;52.198;8.792;2023-01-19T02:33:21;25.90;;;13.67;;
19187;SDS011;9726;52.198;8.792;2023-01-19T02:35:49;20.40;;;12.60;;
19187;SDS011;9726;52.198;8.792;2023-01-19T02:38:18;22.93;;;12.70;;
19187;SDS011;9726;52.198;8.792;2023-01-19T02:40:47;22.67;;;12.57;;
19187;SDS011;9726;52.198;8.792;2023-01-19T02:43:15;26.23;;;12.97;;
19187;SDS011;9726;52.198;8.792;2023-01-19T02:45:43;27.07;;;12.53;;
19187;SDS011;9726;52.198;8.792;2023-01-19T02:48:12;29.23;;;9.77;;
19187;SDS011;9726;52.198;8.792;2023-01-19T02:50:41;24.37;;;13.57;;
19187;SDS011;9726;52.198;8.792;2023-01-19T02:53:20;25.27;;;11.90;;
19187;SDS011;9726;52.198;8.792;2023-01-19T02:55:55;24.97;;;14.03;;
19187;SDS011;9726;52.198;8.792;2023-01-19T03:04:07;27.33;;;14.07;;
19187;SDS011;9726;52.198;8.792;2023-01-19T03:06:45;22.50;;;13.03;;
19187;SDS011;9726;52.198;8.792;2023-01-19T03:09:25;30.97;;;15.83;;
19187;SDS011;9726;52.198;8.792;2023-01-19T03:12:07;23.40;;;13.13;;
19187;SDS011;9726;52.198;8.792;2023-01-19T03:14:37;32.70;;;13.70;;
19187;SDS011;9726;52.198;8.792;2023-01-19T03:17:08;28.10;;;15.47;;
19187;SDS011;9726;52.198;8.792;2023-01-19T03:19:38;31.17;;;14.30;;
19187;SDS011;9726;52.198;8.792;2023-01-19T03:22:10;26.23;;;13.03;;
19187;SDS011;9726;52.198;8.792;2023-01-19T03:24:39;18.90;;;10.57;;
19187;SDS011;9726;52.198;8.792;2023-01-19T03:27:30;28.47;;;14.80;;
19187;SDS011;9726;52.198;8.792;2023-01-19T03:30:00;29.83;;;14.23;;
19187;SDS011;9726;52.198;8.792;2023-01-19T03:32:34;20.27;;;11.00;;
19187;SDS011;9726;52.198;8.792;2023-01-19T03:35:04;26.87;;;13.23;;
19187;SDS011;9726;52.198;8.792;2023-01-19T03:37:36;28.33;;;14.87;;
19187;SDS011;9726;52.198;8.792;2023-01-19T03:40:04;25.80;;;12.90;;
19187;SDS011;9726;52.198;8.792;2023-01-19T03:42:32;24.23;;;13.83;;
19187;SDS011;9726;52.198;8.792;2023-01-19T03:45:01;28.10;;;14.30;;
19187;SDS011;9726;52.198;8.792;2023-01-19T03:47:28;30.13;;;14.27;;
19187;SDS011;9726;52.198;8.792;2023-01-19T03:49:56;23.07;;;11.00;;
19187;SDS011;9726;52.198;8.792;2023-01-19T03:52:27;17.87;;;11.03;;
19187;SDS011;9726;52.198;8.792;2023-01-19T03:54:55;24.47;;;12.63;;
19187;SDS011;9726;52.198;8.792;2023-01-19T03:57:23;19.23;;;10.23;;
19187;SDS011;9726;52.198;8.792;2023-01-19T03:59:50;23.03;;;12.23;;
19187;SDS011;9726;52.198;8.792;2023-01-19T04:02:18;25.40;;;13.97;;
19187;SDS011;9726;52.198;8.792;2023-01-19T04:04:46;28.50;;;13.77;;
19187;SDS011;9726;52.198;8.792;2023-01-19T04:07:13;20.50;;;10.43;;
19187;SDS011;9726;52.198;8.792;2023-01-19T04:09:41;22.57;;;14.07;;
19187;SDS011;9726;52.198;8.792;2023-01-19T04:12:08;27.63;;;13.47;;
19187;SDS011;9726;52.198;8.792;2023-01-19T04:14:36;24.40;;;13.53;;
19187;SDS011;9726;52.198;8.792;2023-01-19T04:17:03;24.63;;;13.43;;
19187;SDS011;9726;52.198;8.792;2023-01-19T04:19:30;22.00;;;12.77;;
19187;SDS011;9726;52.198;8.792;2023-01-19T04:21:58;27.07;;;13.43;;
19187;SDS011;9726;52.198;8.792;2023-01-19T04:24:27;32.63;;;13.53;;
19187;SDS011;9726;52.198;8.792;2023-01-19T04:26:54;29.03;;;14.33;;
19187;SDS011;9726;52.198;8.792;2023-01-19T04:29:22;29.60;;;11.97;;
19187;SDS011;9726;52.198;8.792;2023-01-19T04:31:50;27.03;;;12.63;;
19187;SDS011;9726;52.198;8.792;2023-01-19T04:34:17;27.30;;;11.43;;
19187;SDS011;9726;52.198;8.792;2023-01-19T04:36:45;23.13;;;13.40;;
19187;SDS011;9726;52.198;8.792;2023-01-19T04:39:16;27.37;;;12.77;;
19187;SDS011;9726;52.198;8.792;2023-01-19T04:41:43;22.97;;;13.23;;
19187;SDS011;9726;52.198;8.792;2023-01-19T04:44:11;37.77;;;13.87;;
19187;SDS011;9726;52.198;8.792;2023-01-19T04:46:38;21.27;;;10.40;;
19187;SDS011;9726;52.198;8.792;2023-01-19T04:49:05;25.57;;;12.70;;
19187;SDS011;9726;52.198;8.792;2023-01-19T04:51:33;26.07;;;10.77;;
19187;SDS011;9726;52.198;8.792;2023-01-19T04:54:01;25.63;;;10.10;;
19187;SDS011;9726;52.198;8.792;2023-01-19T04:56:28;24.57;;;10.63;;
19187;SDS011;9726;52.198;8.792;2023-01-19T04:58:56;17.73;;;9.73;;
19187;SDS011;9726;52.198;8.792;2023-01-19T05:01:23;22.20;;;11.80;;
19187;SDS011;9726;52.198;8.792;2023-01-19T05:03:50;22.97;;;12.70;;
19187;SDS011;9726;52.198;8.792;2023-01-19T05:06:18;20.33;;;10.70;;
19187;SDS011;9726;52.198;8.792;2023-01-19T05:08:45;24.37;;;12.03;;
19187;SDS011;9726;52.198;8.792;2023-01-19T05:11:13;27.65;;;13.82;;
19187;SDS011;9726;52.198;8.792;2023-01-19T05:13:41;20.53;;;13.30;;
19187;SDS011;9726;52.198;8.792;2023-01-19T05:16:08;21.70;;;11.20;;
19187;SDS011;9726;52.198;8.792;2023-01-19T05:18:36;19.53;;;10.33;;
19187;SDS011;9726;52.198;8.792;2023-01-19T05:21:04;18.97;;;9.17;;
19187;SDS011;9726;52.198;8.792;2023-01-19T05:23:32;22.30;;;10.47;;
19187;SDS011;9726;52.198;8.792;2023-01-19T05:26:00;20.63;;;8.47;;
19187;SDS011;9726;52.198;8.792;2023-01-19T05:28:28;23.40;;;11.77;;
19187;SDS011;9726;52.198;8.792;2023-01-19T05:30:55;22.57;;;10.70;;
19187;SDS011;9726;52.198;8.792;2023-01-19T05:33:23;26.27;;;10.03;;
19187;SDS011;9726;52.198;8.792;2023-01-19T05:35:52;23.43;;;11.00;;
19187;SDS011;9726;52.198;8.792;2023-01-19T05:38:19;18.80;;;8.27;;
19187;SDS011;9726;52.198;8.792;2023-01-19T05:41:00;25.02;;;11.85;;
19187;SDS011;9726;52.198;8.792;2023-01-19T05:43:28;26.43;;;10.80;;
19187;SDS011;9726;52.198;8.792;2023-01-19T05:45:55;13.90;;;9.00;;
19187;SDS011;9726;52.198;8.792;2023-01-19T05:48:22;18.37;;;11.67;;
19187;SDS011;9726;52.198;8.792;2023-01-19T05:50:50;19.00;;;9.70;;
19187;SDS011;9726;52.198;8.792;2023-01-19T05:53:17;19.00;;;11.95;;
19187;SDS011;9726;52.198;8.792;2023-01-19T05:55:45;24.23;;;11.30;;
19187;SDS011;9726;52.198;8.792;2023-01-19T05:58:12;19.97;;;10.07;;
19187;SDS011;9726;52.198;8.792;2023-01-19T06:00:40;24.03;;;10.90;;
19187;SDS011;9726;52.198;8.792;2023-01-19T06:03:07;21.83;;;10.20;;
19187;SDS011;9726;52.198;8.792;2023-01-19T06:05:55;15.00;;;8.83;;
19187;SDS011;9726;52.198;8.792;2023-01-19T06:08:23;19.40;;;10.23;;
19187;SDS011;9726;52.198;8.792;2023-01-19T06:10:51;24.47;;;11.57;;
19187;SDS011;9726;52.198;8.792;2023-01-19T06:13:19;16.07;;;9.40;;
19187;SDS011;9726;52.198;8.792;2023-01-19T06:15:46;16.60;;;9.53;;
19187;SDS011;9726;52.198;8.792;2023-01-19T06:18:14;27.00;;;9.37;;
19187;SDS011;9726;52.198;8.792;2023-01-19T06:20:41;29.37;;;11.23;;
19187;SDS011;9726;52.198;8.792;2023-01-19T06:23:09;27.63;;;11.10;;
19187;SDS011;9726;52.198;8.792;2023-01-19T06:25:47;26.00;;;10.90;;
19187;SDS011;9726;52.198;8.792;2023-01-19T06:28:15;22.00;;;11.43;;
19187;SDS011;9726;52.198;8.792;2023-01-19T06:30:44;24.50;;;9.23;;
19187;SDS011;9726;52.198;8.792;2023-01-19T06:33:12;20.20;;;7.93;;
19187;SDS011;9726;52.198;8.792;2023-01-19T06:35:41;21.60;;;10.83;;
19187;SDS011;9726;52.198;8.792;2023-01-19T06:38:09;18.30;;;9.57;;
19187;SDS011;9726;52.198;8.792;2023-01-19T06:40:36;19.20;;;10.43;;
19187;SDS011;9726;52.198;8.792;2023-01-19T06:43:06;13.63;;;8.53;;
19187;SDS011;9726;52.198;8.792;2023-01-19T06:45:36;19.47;;;10.07;;
19187;SDS011;9726;52.198;8.792;2023-01-19T06:48:05;19.43;;;10.47;;
19187;SDS011;9726;52.198;8.792;2023-01-19T06:50:32;17.60;;;10.07;;
19187;SDS011;9726;52.198;8.792;2023-01-19T06:53:01;19.07;;;9.40;;
19187;SDS011;9726;52.198;8.792;2023-01-19T06:55:29;21.53;;;9.43;;
19187;SDS011;9726;52.198;8.792;2023-01-19T06:57:57;28.37;;;11.63;;
19187;SDS011;9726;52.198;8.792;2023-01-19T07:00:25;17.93;;;10.67;;
19187;SDS011;9726;52.198;8.792;2023-01-19T07:02:53;15.90;;;10.63;;
19187;SDS011;9726;52.198;8.792;2023-01-19T07:05:20;25.30;;;10.83;;
19187;SDS011;9726;52.198;8.792;2023-01-19T07:07:51;21.00;;;10.83;;
19187;SDS011;9726;52.198;8.792;2023-01-19T07:10:19;18.93;;;9.70;;
19187;SDS011;9726;52.198;8.792;2023-01-19T07:12:47;15.87;;;10.83;;
19187;SDS011;9726;52.198;8.792;2023-01-19T07:15:15;13.07;;;8.40;;
19187;SDS011;9726;52.198;8.792;2023-01-19T07:17:43;10.53;;;7.20;;
19187;SDS011;9726;52.198;8.792;2023-01-19T07:20:10;18.30;;;9.77;;
19187;SDS011;9726;52.198;8.792;2023-01-19T07:22:40;11.47;;;8.70;;
19187;SDS011;9726;52.198;8.792;2023-01-19T07:25:09;17.27;;;10.53;;
19187;SDS011;9726;52.198;8.792;2023-01-19T07:27:36;12.83;;;9.47;;
19187;SDS011;9726;52.198;8.792;2023-01-19T07:30:04;16.60;;;9.13;;
19187;SDS011;9726;52.198;8.792;2023-01-19T07:32:31;12.40;;;9.10;;
19187;SDS011;9726;52.198;8.792;2023-01-19T07:34:59;13.70;;;9.50;;
19187;SDS011;9726;52.198;8.792;2023-01-19T07:37:26;14.47;;;9.10;;
19187;SDS011;9726;52.198;8.792;2023-01-19T07:39:53;13.93;;;9.70;;
19187;SDS011;9726;52.198;8.792;2023-01-19T07:42:21;13.40;;;10.30;;
19187;SDS011;9726;52.198;8.792;2023-01-19T07:44:48;12.13;;;7.63;;
19187;SDS011;9726;52.198;8.792;2023-01-19T07:47:16;14.97;;;9.63;;
19187;SDS011;9726;52.198;8.792;2023-01-19T07:49:43;10.83;;;8.43;;
19187;SDS011;9726;52.198;8.792;2023-01-19T07:52:10;14.33;;;9.60;;
19187;SDS011;9726;52.198;8.792;2023-01-19T07:54:38;13.30;;;8.77;;
19187;SDS011;9726;52.198;8.792;2023-01-19T07:57:05;15.60;;;8.53;;
19187;SDS011;9726;52.198;8.792;2023-01-19T07:59:33;12.00;;;8.27;;
19187;SDS011;9726;52.198;8.792;2023-01-19T08:02:00;14.63;;;8.47;;
19187;SDS011;9726;52.198;8.792;2023-01-19T08:04:28;11.60;;;8.10;;
19187;SDS011;9726;52.198;8.792;2023-01-19T08:06:55;15.00;;;9.23;;
19187;SDS011;9726;52.198;8.792;2023-01-19T08:09:23;14.87;;;9.30;;
19187;SDS011;9726;52.198;8.792;2023-01-19T08:11:50;12.80;;;9.03;;
19187;SDS011;9726;52.198;8.792;2023-01-19T08:14:17;12.73;;;9.50;;
19187;SDS011;9726;52.198;8.792;2023-01-19T08:16:45;12.80;;;9.57;;
19187;SDS011;9726;52.198;8.792;2023-01-19T08:19:12;13.73;;;9.77;;
19187;SDS011;9726;52.198;8.792;2023-01-19T08:21:40;11.80;;;8.30;;
19187;SDS011;9726;52.198;8.792;2023-01-19T08:24:09;11.63;;;8.03;;
19187;SDS011;9726;52.198;8.792;2023-01-19T08:26:43;19.13;;;9.60;;
19187;SDS011;9726;52.198;8.792;2023-01-19T08:29:11;13.60;;;8.93;;
19187;SDS011;9726;52.198;8.792;2023-01-19T08:31:38;15.90;;;9.33;;
19187;SDS011;9726;52.198;8.792;2023-01-19T08:34:07;12.93;;;9.53;;
19187;SDS011;9726;52.198;8.792;2023-01-19T08:36:34;12.07;;;9.40;;
19187;SDS011;9726;52.198;8.792;2023-01-19T08:39:02;15.47;;;10.97;;
19187;SDS011;9726;52.198;8.792;2023-01-19T08:41:29;13.20;;;10.70;;
19187;SDS011;9726;52.198;8.792;2023-01-19T08:43:57;15.50;;;11.20;;
19187;SDS011;9726;52.198;8.792;2023-01-19T08:46:28;13.00;;;9.93;;
19187;SDS011;9726;52.198;8.792;2023-01-19T08:48:57;13.37;;;11.00;;
19187;SDS011;9726;52.198;8.792;2023-01-19T08:51:24;15.63;;;9.60;;
19187;SDS011;9726;52.198;8.792;2023-01-19T08:53:52;13.57;;;9.73;;
19187;SDS011;9726;52.198;8.792;2023-01-19T08:56:19;16.03;;;11.13;;
19187;SDS011;9726;52.198;8.792;2023-01-19T08:58:46;10.30;;;7.80;;
19187;SDS011;9726;52.198;8.792;2023-01-19T09:01:33;16.97;;;11.03;;
19187;SDS011;9726;52.198;8.792;2023-01-19T09:04:02;16.93;;;12.73;;
19187;SDS011;9726;52.198;8.792;2023-01-19T09:06:29;13.73;;;9.97;;
19187;SDS011;9726;52.198;8.792;2023-01-19T09:08:58;15.17;;;11.13;;
19187;SDS011;9726;52.198;8.792;2023-01-19T09:11:26;17.57;;;11.70;;
19187;SDS011;9726;52.198;8.792;2023-01-19T09:13:54;16.93;;;10.50;;
19187;SDS011;9726;52.198;8.792;2023-01-19T09:16:21;14.60;;;11.13;;
19187;SDS011;9726;52.198;8.792;2023-01-19T09:18:49;15.30;;;10.97;;
19187;SDS011;9726;52.198;8.792;2023-01-19T09:21:16;15.07;;;11.27;;
19187;SDS011;9726;52.198;8.792;2023-01-19T09:23:44;18.33;;;11.83;;
19187;SDS011;9726;52.198;8.792;2023-01-19T09:26:12;21.03;;;11.60;;
19187;SDS011;9726;52.198;8.792;2023-01-19T09:28:39;16.50;;;12.37;;
19187;SDS011;9726;52.198;8.792;2023-01-19T09:31:07;15.17;;;10.70;;
19187;SDS011;9726;52.198;8.792;2023-01-19T09:33:34;15.13;;;11.37;;
19187;SDS011;9726;52.198;8.792;2023-01-19T09:36:02;17.77;;;11.87;;
19187;SDS011;9726;52.198;8.792;2023-01-19T09:38:30;16.80;;;11.50;;
19187;SDS011;9726;52.198;8.792;2023-01-19T09:40:58;17.67;;;12.70;;
19187;SDS011;9726;52.198;8.792;2023-01-19T09:43:30;18.63;;;11.63;;
19187;SDS011;9726;52.198;8.792;2023-01-19T09:46:00;17.33;;;12.40;;
19187;SDS011;9726;52.198;8.792;2023-01-19T09:51:12;15.43;;;10.70;;
19187;SDS011;9726;52.198;8.792;2023-01-19T09:53:48;15.70;;;11.53;;
19187;SDS011;9726;52.198;8.792;2023-01-19T09:56:17;17.30;;;11.97;;
19187;SDS011;9726;52.198;8.792;2023-01-19T09:58:46;18.03;;;12.27;;
19187;SDS011;9726;52.198;8.792;2023-01-19T10:03:41;18.33;;;12.40;;
19187;SDS011;9726;52.198;8.792;2023-01-19T10:06:09;17.93;;;12.03;;
19187;SDS011;9726;52.198;8.792;2023-01-19T10:08:39;16.27;;;11.13;;
19187;SDS011;9726;52.198;8.792;2023-01-19T10:11:20;13.67;;;10.10;;
19187;SDS011;9726;52.198;8.792;2023-01-19T10:13:59;17.07;;;11.57;;
19187;SDS011;9726;52.198;8.792;2023-01-19T10:19:20;17.07;;;11.80;;
19187;SDS011;9726;52.198;8.792;2023-01-19T10:21:49;14.47;;;9.33;;
19187;SDS011;9726;52.198;8.792;2023-01-19T10:24:22;16.07;;;9.43;;
19187;SDS011;9726;52.198;8.792;2023-01-19T10:26:52;18.83;;;11.00;;
19187;SDS011;9726;52.198;8.792;2023-01-19T10:29:21;14.80;;;9.87;;
19187;SDS011;9726;52.198;8.792;2023-01-19T10:31:50;15.27;;;10.83;;
19187;SDS011;9726;52.198;8.792;2023-01-19T10:34:18;21.40;;;11.27;;
19187;SDS011;9726;52.198;8.792;2023-01-19T10:36:57;13.60;;;8.10;;
19187;SDS011;9726;52.198;8.792;2023-01-19T10:39:26;16.97;;;10.00;;
19187;SDS011;9726;52.198;8.792;2023-01-19T10:41:54;15.27;;;10.40;;
19187;SDS011;9726;52.198;8.792;2023-01-19T10:44:24;21.37;;;11.60;;
19187;SDS011;9726;52.198;8.792;2023-01-19T10:46:56;18.47;;;11.00;;
19187;SDS011;9726;52.198;8.792;2023-01-19T10:51:55;17.57;;;9.23;;
19187;SDS011;9726;52.198;8.792;2023-01-19T10:54:24;16.57;;;8.40;;
19187;SDS011;9726;52.198;8.792;2023-01-19T10:56:56;8.90;;;6.03;;
19187;SDS011;9726;52.198;8.792;2023-01-19T10:59:38;13.23;;;8.80;;
19187;SDS011;9726;52.198;8.792;2023-01-19T11:04:44;14.67;;;8.03;;
19187;SDS011;9726;52.198;8.792;2023-01-19T11:07:22;12.03;;;7.03;;
19187;SDS011;9726;52.198;8.792;2023-01-19T11:10:12;8.97;;;6.53;;
19187;SDS011;9726;52.198;8.792;2023-01-19T11:12:41;9.67;;;6.83;;
19187;SDS011;9726;52.198;8.792;2023-01-19T11:15:15;14.13;;;6.27;;
19187;SDS011;9726;52.198;8.792;2023-01-19T11:17:46;11.87;;;6.97;;
19187;SDS011;9726;52.198;8.792;2023-01-19T11:20:17;11.63;;;7.10;;
19187;SDS011;9726;52.198;8.792;2023-01-19T11:22:46;10.40;;;5.47;;
19187;SDS011;9726;52.198;8.792;2023-01-19T11:25:22;12.77;;;6.40;;
19187;SDS011;9726;52.198;8.792;2023-01-19T11:27:52;10.17;;;6.57;;
19187;SDS011;9726;52.198;8.792;2023-01-19T11:30:21;8.97;;;5.87;;
19187;SDS011;9726;52.198;8.792;2023-01-19T11:32:50;10.60;;;6.47;;
19187;SDS011;9726;52.198;8.792;2023-01-19T11:35:35;12.73;;;7.00;;
19187;SDS011;9726;52.198;8.792;2023-01-19T11:40:39;11.37;;;6.57;;
19187;SDS011;9726;52.198;8.792;2023-01-19T11:43:14;13.43;;;5.60;;
19187;SDS011;9726;52.198;8.792;2023-01-19T11:45:41;16.13;;;6.13;;
19187;SDS011;9726;52.198;8.792;2023-01-19T11:48:12;7.53;;;4.63;;
19187;SDS011;9726;52.198;8.792;2023-01-19T11:50:41;19.03;;;6.07;;
19187;SDS011;9726;52.198;8.792;2023-01-19T11:53:15;14.40;;;6.13;;
19187;SDS011;9726;52.198;8.792;2023-01-19T11:55:51;15.33;;;6.73;;
19187;SDS011;9726;52.198;8.792;2023-01-19T11:58:19;14.37;;;5.80;;
19187;SDS011;9726;52.198;8.792;2023-01-19T12:00:48;11.67;;;6.07;;
19187;SDS011;9726;52.198;8.792;2023-01-19T12:03:29;12.17;;;6.73;;
19187;SDS011;9726;52.198;8.792;2023-01-19T12:06:03;11.93;;;6.70;;
19187;SDS011;9726;52.198;8.792;2023-01-19T12:08:35;12.40;;;6.27;;
19187;SDS011;9726;52.198;8.792;2023-01-19T12:11:04;12.30;;;7.13;;
19187;SDS011;9726;52.198;8.792;2023-01-19T12:13:32;21.53;;;5.97;;
19187;SDS011;9726;52.198;8.792;2023-01-19T12:18:28;12.13;;;8.13;;
19187;SDS011;9726;52.198;8.792;2023-01-19T12:20:56;22.73;;;7.47;;
19187;SDS011;9726;52.198;8.792;2023-01-19T12:28:57;21.03;;;7.40;;
19187;SDS011;9726;52.198;8.792;2023-01-19T12:31:26;17.77;;;7.17;;
19187;SDS011;9726;52.198;8.792;2023-01-19T12:33:54;19.53;;;7.17;;
19187;SDS011;9726;52.198;8.792;2023-01-19T12:38:52;21.20;;;7.40;;
19187;SDS011;9726;52.198;8.792;2023-01-19T12:51:49;15.47;;;6.87;;
19187;SDS011;9726;52.198;8.792;2023-01-19T12:54:19;18.07;;;6.97;;
19187;SDS011;9726;52.198;8.792;2023-01-19T12:56:48;18.77;;;5.53;;
19187;SDS011;9726;52.198;8.792;2023-01-19T12:59:25;18.27;;;6.17;;
19187;SDS011;9726;52.198;8.792;2023-01-19T13:04:38;19.47;;;6.20;;
19187;SDS011;9726;52.198;8.792;2023-01-19T13:07:07;15.77;;;5.87;;
19187;SDS011;9726;52.198;8.792;2023-01-19T13:09:36;23.93;;;5.53;;
19187;SDS011;9726;52.198;8.792;2023-01-19T13:14:41;26.10;;;6.80;;
19187;SDS011;9726;52.198;8.792;2023-01-19T13:19:43;21.27;;;5.63;;
19187;SDS011;9726;52.198;8.792;2023-01-19T13:25:06;29.70;;;5.00;;
19187;SDS011;9726;52.198;8.792;2023-01-19T13:27:34;28.07;;;5.83;;
19187;SDS011;9726;52.198;8.792;2023-01-19T13:30:09;20.00;;;5.73;;
19187;SDS011;9726;52.198;8.792;2023-01-19T13:32:39;22.00;;;6.77;;
19187;SDS011;9726;52.198;8.792;2023-01-19T13:35:10;18.70;;;5.10;;
19187;SDS011;9726;52.198;8.792;2023-01-19T13:37:42;24.33;;;5.70;;
19187;SDS011;9726;52.198;8.792;2023-01-19T13:40:32;16.53;;;6.03;;
19187;SDS011;9726;52.198;8.792;2023-01-19T13:42:59;15.97;;;6.03;;
19187;SDS011;9726;52.198;8.792;2023-01-19T13:47:56;19.07;;;5.60;;
19187;SDS011;9726;52.198;8.792;2023-01-19T13:52:52;16.20;;;5.97;;
19187;SDS011;9726;52.198;8.792;2023-01-19T13:55:21;29.63;;;8.13;;
19187;SDS011;9726;52.198;8.792;2023-01-19T13:57:49;15.27;;;6.07;;
19187;SDS011;9726;52.198;8.792;2023-01-19T14:00:19;25.87;;;7.53;;
19187;SDS011;9726;52.198;8.792;2023-01-19T14:03:00;18.97;;;8.07;;
19187;SDS011;9726;52.198;8.792;2023-01-19T14:10:29;28.27;;;7.50;;
19187;SDS011;9726;52.198;8.792;2023-01-19T14:12:57;22.47;;;8.50;;
19187;SDS011;9726;52.198;8.792;2023-01-19T14:15:26;35.23;;;8.77;;
19187;SDS011;9726;52.198;8.792;2023-01-19T14:18:10;28.93;;;8.00;;
19187;SDS011;9726;52.198;8.792;2023-01-19T14:20:38;22.97;;;7.50;;
19187;SDS011;9726;52.198;8.792;2023-01-19T14:23:28;28.27;;;8.80;;
19187;SDS011;9726;52.198;8.792;2023-01-19T14:25:53;26.37;;;10.30;;
19187;SDS011;9726;52.198;8.792;2023-01-19T14:28:33;25.47;;;8.67;;
19187;SDS011;9726;52.198;8.792;2023-01-19T14:31:20;39.17;;;10.10;;
19187;SDS011;9726;52.198;8.792;2023-01-19T14:33:49;26.50;;;10.20;;
19187;SDS011;9726;52.198;8.792;2023-01-19T14:38:47;32.27;;;10.93;;
19187;SDS011;9726;52.198;8.792;2023-01-19T14:41:36;31.83;;;11.63;;
19187;SDS011;9726;52.198;8.792;2023-01-19T14:44:08;30.30;;;9.87;;
19187;SDS011;9726;52.198;8.792;2023-01-19T14:46:36;26.67;;;10.90;;
19187;SDS011;9726;52.198;8.792;2023-01-19T14:49:04;36.03;;;14.13;;
19187;SDS011;9726;52.198;8.792;2023-01-19T14:51:32;29.20;;;11.80;;
19187;SDS011;9726;52.198;8.792;2023-01-19T14:53:59;30.97;;;12.83;;
19187;SDS011;9726;52.198;8.792;2023-01-19T14:56:29;29.73;;;12.77;;
19187;SDS011;9726;52.198;8.792;2023-01-19T14:58:57;26.13;;;14.67;;
19187;SDS011;9726;52.198;8.792;2023-01-19T15:01:25;34.47;;;14.00;;
19187;SDS011;9726;52.198;8.792;2023-01-19T15:03:57;28.77;;;13.23;;
19187;SDS011;9726;52.198;8.792;2023-01-19T15:06:24;34.10;;;14.80;;
19187;SDS011;9726;52.198;8.792;2023-01-19T15:08:52;38.10;;;14.77;;
19187;SDS011;9726;52.198;8.792;2023-01-19T15:11:30;31.43;;;14.23;;
19187;SDS011;9726;52.198;8.792;2023-01-19T15:13:58;30.27;;;14.03;;
19187;SDS011;9726;52.198;8.792;2023-01-19T15:16:26;29.77;;;14.37;;
19187;SDS011;9726;52.198;8.792;2023-01-19T15:18:55;33.67;;;14.10;;
19187;SDS011;9726;52.198;8.792;2023-01-19T15:21:22;37.27;;;14.90;;
19187;SDS011;9726;52.198;8.792;2023-01-19T15:23:52;38.80;;;15.63;;
19187;SDS011;9726;52.198;8.792;2023-01-19T15:26:21;34.50;;;15.57;;
19187;SDS011;9726;52.198;8.792;2023-01-19T15:28:49;31.37;;;14.23;;
19187;SDS011;9726;52.198;8.792;2023-01-19T15:31:17;31.73;;;14.73;;
19187;SDS011;9726;52.198;8.792;2023-01-19T15:33:45;36.03;;;15.27;;
19187;SDS011;9726;52.198;8.792;2023-01-19T15:36:13;29.53;;;14.20;;
19187;SDS011;9726;52.198;8.792;2023-01-19T15:38:43;32.70;;;15.07;;
19187;SDS011;9726;52.198;8.792;2023-01-19T15:41:20;28.80;;;14.23;;
19187;SDS011;9726;52.198;8.792;2023-01-19T15:43:49;43.17;;;15.27;;
19187;SDS011;9726;52.198;8.792;2023-01-19T15:46:20;36.57;;;15.17;;
19187;SDS011;9726;52.198;8.792;2023-01-19T15:48:48;58.80;;;20.33;;
19187;SDS011;9726;52.198;8.792;2023-01-19T15:51:17;69.13;;;29.67;;
19187;SDS011;9726;52.198;8.792;2023-01-19T15:53:45;47.33;;;22.07;;
19187;SDS011;9726;52.198;8.792;2023-01-19T15:56:13;44.47;;;18.07;;
19187;SDS011;9726;52.198;8.792;2023-01-19T15:58:41;46.50;;;18.37;;
19187;SDS011;9726;52.198;8.792;2023-01-19T16:01:10;43.77;;;17.37;;
19187;SDS011;9726;52.198;8.792;2023-01-19T16:03:41;48.93;;;17.53;;
19187;SDS011;9726;52.198;8.792;2023-01-19T16:06:10;51.70;;;18.07;;